createdAt,value
2019-02-26T00:01:35.328Z,5.32
2019-02-26T00:04:06.496Z,5.07
2019-02-26T00:06:42.437Z,5.00
2019-02-26T00:09:18.170Z,5.14
2019-02-26T00:11:48.076Z,5.35
2019-02-26T00:14:20.711Z,5.33
2019-02-26T00:16:54.491Z,5.24
2019-02-26T00:19:26.067Z,4.93
2019-02-26T00:21:58.196Z,4.94
2019-02-26T00:24:30.787Z,4.95
2019-02-26T00:27:03.796Z,4.97
2019-02-26T00:29:36.253Z,4.78
2019-02-26T00:32:10.091Z,4.80
2019-02-26T00:34:41.481Z,4.96
2019-02-26T00:37:55.707Z,5.05
2019-02-26T00:40:27.275Z,4.81
2019-02-26T00:43:00.175Z,4.74
2019-02-26T00:45:33.564Z,4.82
2019-02-26T00:48:04.611Z,4.86
2019-02-26T00:50:37.511Z,5.09
2019-02-26T00:53:10.731Z,5.28
2019-02-26T00:55:41.969Z,5.22
2019-02-26T00:58:13.276Z,5.37
2019-02-26T01:00:44.968Z,5.61
2019-02-26T01:03:16.791Z,5.77
2019-02-26T01:05:48.168Z,5.87
2019-02-26T01:08:19.911Z,5.84
2019-02-26T01:10:51.525Z,5.84
2019-02-26T01:13:25.630Z,5.82
2019-02-26T01:15:56.911Z,5.85
2019-02-26T01:18:29.097Z,5.88
2019-02-26T01:21:02.534Z,5.68
2019-02-26T01:23:34.225Z,5.68
2019-02-26T01:26:06.113Z,5.61
2019-02-26T01:28:39.555Z,5.57
2019-02-26T01:31:11.032Z,5.68
2019-02-26T01:33:42.284Z,5.79
2019-02-26T01:36:13.968Z,5.83
2019-02-26T01:38:48.697Z,5.87
2019-02-26T01:41:20.989Z,5.76
2019-02-26T01:43:52.601Z,5.79
2019-02-26T01:46:23.972Z,5.68
2019-02-26T01:48:57.432Z,5.28
2019-02-26T01:51:29.338Z,5.23
2019-02-26T01:54:01.459Z,5.16
2019-02-26T01:56:36.282Z,5.23
2019-02-26T01:59:07.255Z,5.42
2019-02-26T02:01:42.071Z,5.57
2019-02-26T02:04:12.880Z,5.68
2019-02-26T02:06:44.566Z,5.70
2019-02-26T02:09:17.684Z,5.47
2019-02-26T02:11:48.792Z,5.33
2019-02-26T02:14:21.020Z,5.34
2019-02-26T02:16:52.368Z,5.14
2019-02-26T02:19:25.725Z,5.10
2019-02-26T02:21:58.277Z,5.20
2019-02-26T02:24:31.810Z,5.15
2019-02-26T02:27:03.524Z,4.98
2019-02-26T02:29:34.817Z,5.02
2019-02-26T02:32:07.710Z,5.32
2019-02-26T02:34:42.923Z,5.39
2019-02-26T02:37:15.341Z,5.32
2019-02-26T02:39:47.210Z,5.38
2019-02-26T02:42:21.297Z,5.39
2019-02-26T02:44:52.818Z,5.55
2019-02-26T02:47:25.316Z,5.54
2019-02-26T02:49:57.941Z,5.51
2019-02-26T02:52:30.362Z,5.43
2019-02-26T02:55:04.567Z,5.35
2019-02-26T02:57:35.843Z,5.19
2019-02-26T03:00:08.901Z,5.08
2019-02-26T03:02:42.884Z,5.10
2019-02-26T03:05:13.614Z,5.32
2019-02-26T03:07:48.850Z,5.44
2019-02-26T03:10:18.281Z,5.38
2019-02-26T03:12:53.854Z,4.86
2019-02-26T03:15:24.589Z,4.77
2019-02-26T03:17:57.198Z,4.81
2019-02-26T03:20:30.826Z,4.75
2019-02-26T03:23:01.490Z,4.70
2019-02-26T03:25:32.788Z,4.65
2019-02-26T03:28:04.338Z,4.70
2019-02-26T03:30:40.603Z,4.70
2019-02-26T03:33:08.843Z,4.94
2019-02-26T03:35:40.532Z,5.23
2019-02-26T03:38:11.746Z,5.24
2019-02-26T03:40:43.319Z,5.23
2019-02-26T03:43:16.282Z,5.38
2019-02-26T03:45:48.231Z,5.54
2019-02-26T03:48:20.501Z,5.51
2019-02-26T03:50:51.908Z,5.56
2019-02-26T03:53:25.591Z,5.75
2019-02-26T03:56:01.926Z,5.64
2019-02-26T03:58:29.816Z,5.50
2019-02-26T04:01:04.583Z,5.45
2019-02-26T04:03:37.623Z,5.39
2019-02-26T04:06:09.976Z,5.59
2019-02-26T04:08:42.316Z,5.46
2019-02-26T04:11:16.538Z,5.57
2019-02-26T04:13:49.362Z,5.63
2019-02-26T04:16:20.109Z,5.68
2019-02-26T04:18:52.104Z,5.88
2019-02-26T04:21:23.548Z,5.93
2019-02-26T04:23:54.848Z,5.78
2019-02-26T04:27:04.138Z,5.87
2019-02-26T04:29:59.691Z,5.72
2019-02-26T04:33:20.671Z,5.72
2019-02-26T04:36:02.329Z,5.86
2019-02-26T04:39:01.631Z,6.01
2019-02-26T04:42:20.541Z,5.82
2019-02-26T04:45:30.310Z,5.78
2019-02-26T04:48:01.759Z,5.77
2019-02-26T04:50:35.511Z,5.80
2019-02-26T04:53:08.548Z,5.75
2019-02-26T04:55:41.532Z,5.91
2019-02-26T04:58:14.934Z,5.91
2019-02-26T05:00:45.326Z,5.85
2019-02-26T05:03:18.148Z,5.79
2019-02-26T05:05:53.737Z,5.63
2019-02-26T05:08:23.026Z,5.82
2019-02-26T05:10:57.250Z,5.90
2019-02-26T05:13:29.314Z,6.13
2019-02-26T05:16:00.721Z,5.78
2019-02-26T05:18:34.402Z,5.68
2019-02-26T05:21:08.273Z,5.84
2019-02-26T05:23:38.749Z,5.82
2019-02-26T05:26:11.655Z,5.68
2019-02-26T05:28:44.236Z,5.80
2019-02-26T05:31:17.525Z,5.87
2019-02-26T05:33:50.149Z,5.89
2019-02-26T05:36:22.391Z,5.71
2019-02-26T05:38:56.989Z,5.80
2019-02-26T05:41:27.874Z,5.48
2019-02-26T05:44:03.490Z,5.55
2019-02-26T05:46:32.017Z,5.70
2019-02-26T05:49:06.845Z,5.85
2019-02-26T05:51:38.202Z,5.78
2019-02-26T05:54:12.229Z,5.61
2019-02-26T05:56:46.138Z,5.59
2019-02-26T05:59:18.121Z,5.53
2019-02-26T06:01:52.733Z,5.43
2019-02-26T06:04:22.984Z,5.49
2019-02-26T06:06:56.405Z,5.45
2019-02-26T06:09:30.551Z,5.46
2019-02-26T06:12:01.727Z,5.41
2019-02-26T06:14:35.931Z,5.31
2019-02-26T06:17:07.357Z,5.37
2019-02-26T06:19:47.565Z,5.36
2019-02-26T06:22:21.321Z,5.37
2019-02-26T06:24:54.951Z,5.51
2019-02-26T06:27:27.298Z,5.58
2019-02-26T06:30:00.776Z,5.35
2019-02-26T06:32:34.537Z,5.24
2019-02-26T06:35:08.521Z,5.43
2019-02-26T06:37:40.391Z,5.38
2019-02-26T06:40:12.902Z,5.46
2019-02-26T06:42:44.260Z,5.49
2019-02-26T06:45:17.184Z,5.63
2019-02-26T06:47:51.333Z,5.56
2019-02-26T06:50:26.069Z,5.52
2019-02-26T06:52:57.497Z,5.61
2019-02-26T06:55:28.688Z,5.34
2019-02-26T06:58:29.970Z,5.40
2019-02-26T07:01:01.550Z,5.32
2019-02-26T07:03:32.886Z,5.19
2019-02-26T07:06:04.960Z,5.34
2019-02-26T07:08:36.281Z,5.40
2019-02-26T07:11:07.519Z,5.63
2019-02-26T07:13:41.045Z,5.74
2019-02-26T07:16:34.713Z,5.93
2019-02-26T07:19:06.521Z,6.14
2019-02-26T07:21:40.641Z,6.33
2019-02-26T07:24:12.138Z,6.48
2019-02-26T07:26:46.393Z,6.34
2019-02-26T07:29:17.665Z,6.22
2019-02-26T07:31:49.519Z,6.57
2019-02-26T07:34:22.778Z,6.65
2019-02-26T07:36:55.841Z,6.62
2019-02-26T07:39:27.823Z,7.19
2019-02-26T07:42:00.569Z,6.93
2019-02-26T07:44:32.383Z,6.60
2019-02-26T07:47:06.685Z,7.09
2019-02-26T07:49:38.627Z,7.52
2019-02-26T07:52:10.085Z,7.28
2019-02-26T07:54:42.783Z,7.46
2019-02-26T07:57:15.741Z,7.49
2019-02-26T07:59:50.199Z,7.40
2019-02-26T08:02:22.176Z,7.50
2019-02-26T08:04:53.802Z,7.68
2019-02-26T08:07:26.783Z,7.73
2019-02-26T08:09:59.806Z,7.99
2019-02-26T08:12:35.054Z,8.04
2019-02-26T08:15:08.710Z,7.88
2019-02-26T08:17:40.448Z,7.88
2019-02-26T08:20:14.881Z,7.86
2019-02-26T08:22:46.843Z,7.81
2019-02-26T08:25:18.486Z,7.72
2019-02-26T08:27:51.761Z,7.72
2019-02-26T08:30:25.891Z,8.06
2019-02-26T08:32:58.917Z,8.09
2019-02-26T08:35:34.255Z,8.16
2019-02-26T08:38:06.375Z,8.51
2019-02-26T08:40:37.793Z,8.77
2019-02-26T08:43:09.140Z,8.83
2019-02-26T08:45:40.527Z,8.87
2019-02-26T08:48:13.263Z,9.09
2019-02-26T08:50:46.317Z,9.15
2019-02-26T08:53:19.616Z,9.18
2019-02-26T08:55:56.336Z,9.23
2019-02-26T08:58:31.996Z,9.02
2019-02-26T09:01:06.659Z,9.12
2019-02-26T09:03:40.958Z,9.06
2019-02-26T09:06:13.599Z,9.01
2019-02-26T09:08:46.525Z,9.05
2019-02-26T09:11:19.705Z,9.08
2019-02-26T09:13:52.009Z,8.97
2019-02-26T09:16:27.650Z,9.05
2019-02-26T09:18:59.304Z,9.10
2019-02-26T09:21:31.337Z,9.25
2019-02-26T09:24:07.689Z,9.28
2019-02-26T09:26:40.734Z,9.12
2019-02-26T09:29:24.583Z,9.37
2019-02-26T09:31:55.996Z,9.41
2019-02-26T09:34:29.330Z,9.50
2019-02-26T09:37:05.749Z,9.29
2019-02-26T09:39:40.591Z,9.39
2019-02-26T09:42:13.544Z,9.51
2019-02-26T09:45:04.662Z,9.62
2019-02-26T09:47:40.349Z,9.80
2019-02-26T09:53:20.072Z,10.02
2019-02-26T09:55:52.400Z,9.98
2019-02-26T09:58:48.441Z,10.16
2019-02-26T10:01:51.274Z,10.20
2019-02-26T10:04:31.924Z,10.27
2019-02-26T10:07:08.855Z,10.42
2019-02-26T10:09:45.733Z,10.59
2019-02-26T10:12:15.810Z,10.52
2019-02-26T10:14:49.719Z,10.56
2019-02-26T10:17:21.529Z,10.49
2019-02-26T10:19:55.022Z,10.64
2019-02-26T10:22:28.952Z,10.61
2019-02-26T10:25:01.322Z,10.56
2019-02-26T10:27:38.278Z,10.73
2019-02-26T10:30:47.897Z,10.79
2019-02-26T10:33:21.123Z,10.98
2019-02-26T10:35:52.660Z,11.01
2019-02-26T10:38:28.885Z,10.96
2019-02-26T10:40:59.716Z,10.97
2019-02-26T10:43:31.857Z,10.94
2019-02-26T10:46:04.723Z,11.07
2019-02-26T10:48:36.245Z,11.16
2019-02-26T10:51:07.654Z,11.32
2019-02-26T10:53:39.313Z,11.35
2019-02-26T10:56:11.204Z,11.39
2019-02-26T10:58:42.568Z,11.48
2019-02-26T11:01:14.352Z,11.56
2019-02-26T11:03:49.290Z,11.49
2019-02-26T11:06:22.419Z,11.55
2019-02-26T11:08:55.721Z,11.49
2019-02-26T11:11:30.531Z,11.64
2019-02-26T11:14:05.259Z,11.73
2019-02-26T11:16:39.154Z,11.85
2019-02-26T11:19:12.345Z,12.03
2019-02-26T11:21:47.345Z,11.99
2019-02-26T11:24:19.352Z,12.18
2019-02-26T11:26:51.625Z,12.11
2019-02-26T11:29:23.060Z,12.20
2019-02-26T11:31:54.588Z,12.05
2019-02-26T11:34:28.579Z,12.03
2019-02-26T11:37:02.781Z,12.10
2019-02-26T11:39:37.059Z,12.18
2019-02-26T11:42:21.211Z,12.17
2019-02-26T11:44:52.383Z,12.34
2019-02-26T11:47:40.935Z,12.23
2019-02-26T11:50:32.832Z,12.26
2019-02-26T11:53:09.921Z,12.29
2019-02-26T11:55:43.431Z,12.38
2019-02-26T11:58:19.894Z,12.40
2019-02-26T12:01:14.676Z,12.49
2019-02-26T12:03:47.281Z,12.65
2019-02-26T12:06:20.771Z,12.84
2019-02-26T12:08:54.251Z,12.80
2019-02-26T12:11:26.032Z,12.82
2019-02-26T12:13:57.897Z,12.89
2019-02-26T12:16:30.570Z,12.97
2019-02-26T12:19:04.056Z,12.84
2019-02-26T12:21:37.041Z,12.90
2019-02-26T12:24:12.450Z,13.05
2019-02-26T12:26:44.686Z,13.17
2019-02-26T12:29:16.199Z,13.24
2019-02-26T12:31:53.834Z,13.02
2019-02-26T12:34:25.170Z,13.17
2019-02-26T12:37:02.130Z,13.22
2019-02-26T12:39:32.731Z,13.34
2019-02-26T12:42:08.054Z,13.52
2019-02-26T12:44:44.822Z,13.55
2019-02-26T12:47:17.831Z,13.54
2019-02-26T12:49:58.563Z,13.49
2019-02-26T12:52:34.256Z,13.64
2019-02-26T12:55:09.951Z,13.62
2019-02-26T12:57:43.305Z,13.44
2019-02-26T13:00:20.062Z,13.61
2019-02-26T13:02:52.299Z,13.53
2019-02-26T13:05:23.539Z,13.76
2019-02-26T13:07:57.018Z,13.87
2019-02-26T13:10:30.643Z,13.97
2019-02-26T13:13:06.552Z,13.94
2019-02-26T13:15:39.110Z,14.06
2019-02-26T13:18:11.324Z,14.09
2019-02-26T13:20:43.301Z,14.09
2019-02-26T13:23:19.576Z,13.97
2019-02-26T13:25:48.482Z,14.09
2019-02-26T13:28:29.690Z,14.04
2019-02-26T13:31:04.791Z,14.08
2019-02-26T13:33:38.538Z,14.28
2019-02-26T13:36:09.108Z,14.20
2019-02-26T13:39:00.184Z,14.33
2019-02-26T13:41:38.614Z,14.37
2019-02-26T13:44:07.047Z,14.25
2019-02-26T13:46:42.763Z,14.28
2019-02-26T13:49:14.230Z,14.27
2019-02-26T13:51:45.703Z,14.25
2019-02-26T13:54:19.165Z,14.27
2019-02-26T13:56:50.906Z,14.31
2019-02-26T13:59:23.455Z,14.34
2019-02-26T14:01:55.028Z,14.37
2019-02-26T14:04:27.602Z,14.25
2019-02-26T14:06:58.978Z,14.18
2019-02-26T14:09:30.513Z,14.28
2019-02-26T14:12:03.978Z,14.12
2019-02-26T14:14:36.041Z,14.27
2019-02-26T14:17:27.671Z,14.35
2019-02-26T14:20:03.698Z,14.36
2019-02-26T14:22:35.442Z,14.54
2019-02-26T14:25:09.653Z,14.61
2019-02-26T14:27:41.999Z,14.64
2019-02-26T14:30:14.508Z,14.70
2019-02-26T14:32:49.810Z,14.47
2019-02-26T14:35:21.521Z,14.42
2019-02-26T14:37:55.875Z,14.41
2019-02-26T14:40:27.907Z,14.27
2019-02-26T14:43:07.273Z,14.19
2019-02-26T14:46:00.827Z,14.12
2019-02-26T14:48:52.338Z,14.18
2019-02-26T14:51:45.911Z,14.27
2019-02-26T14:55:08.489Z,14.29
2019-02-26T14:57:42.621Z,14.18
2019-02-26T15:00:41.131Z,14.08
2019-02-26T15:03:35.948Z,14.06
2019-02-26T15:06:20.605Z,14.12
2019-02-26T15:09:12.236Z,14.16
2019-02-26T15:11:46.744Z,14.10
2019-02-26T15:14:20.637Z,14.08
2019-02-26T15:17:02.578Z,13.91
2019-02-26T15:19:49.430Z,13.62
2019-02-26T15:22:16.826Z,13.60
2019-02-26T15:28:23.871Z,13.65
2019-02-26T15:31:07.024Z,13.49
2019-02-26T15:33:39.532Z,13.56
2019-02-26T15:36:22.312Z,13.42
2019-02-26T15:38:57.818Z,13.33
2019-02-26T15:41:48.180Z,13.31
2019-02-26T15:44:35.854Z,13.32
2019-02-26T15:47:39.945Z,13.23
2019-02-26T15:51:14.368Z,13.26
2019-02-26T15:59:35.623Z,13.20
2019-02-26T16:02:07.526Z,13.27
2019-02-26T16:04:38.916Z,13.17
2019-02-26T16:07:11.535Z,13.09
2019-02-26T16:09:42.774Z,13.16
2019-02-26T16:12:14.151Z,13.07
2019-02-26T16:14:45.807Z,13.14
2019-02-26T16:17:17.291Z,13.23
2019-02-26T16:19:49.227Z,13.18
2019-02-26T16:22:23.251Z,13.03
2019-02-26T16:24:55.144Z,12.94
2019-02-26T16:27:28.281Z,12.95
2019-02-26T16:30:00.308Z,13.08
2019-02-26T16:32:32.132Z,12.95
2019-02-26T16:35:03.780Z,12.70
2019-02-26T16:37:35.532Z,12.57
2019-02-26T16:40:09.647Z,12.54
2019-02-26T16:42:44.334Z,12.58
2019-02-26T16:45:17.777Z,12.65
2019-02-26T16:47:49.512Z,12.74
2019-02-26T16:50:22.954Z,12.74
2019-02-26T16:52:54.784Z,12.40
2019-02-26T16:55:26.174Z,12.48
2019-02-26T16:58:02.357Z,12.48
2019-02-26T17:00:33.029Z,12.31
2019-02-26T17:03:07.416Z,12.22
2019-02-26T17:05:40.800Z,12.11
2019-02-26T17:08:12.589Z,12.12
2019-02-26T17:10:44.251Z,11.98
2019-02-26T17:13:16.359Z,11.80
2019-02-26T17:15:49.426Z,11.72
2019-02-26T17:18:21.939Z,11.63
2019-02-26T17:20:56.934Z,11.57
2019-02-26T17:23:29.224Z,11.48
2019-02-26T17:26:01.180Z,11.45
2019-02-26T17:28:33.563Z,11.44
2019-02-26T17:31:06.343Z,11.47
2019-02-26T17:33:38.771Z,11.43
2019-02-26T17:36:10.077Z,11.42
2019-02-26T17:38:41.251Z,11.46
2019-02-26T17:41:13.293Z,11.52
2019-02-26T17:43:44.527Z,11.58
2019-02-26T17:46:16.551Z,11.57
2019-02-26T17:48:48.925Z,11.55
2019-02-26T17:51:21.413Z,11.53
2019-02-26T17:53:53.023Z,11.51
2019-02-26T17:56:26.724Z,11.47
2019-02-26T17:58:58.781Z,11.63
2019-02-26T18:01:30.048Z,11.38
2019-02-26T18:04:02.327Z,11.32
2019-02-26T18:09:20.619Z,11.30
2019-02-26T18:11:52.409Z,11.19
2019-02-26T18:14:24.712Z,11.15
2019-02-26T18:16:58.785Z,11.03
2019-02-26T18:19:30.216Z,11.02
2019-02-26T18:22:01.634Z,10.99
2019-02-26T18:24:32.983Z,10.99
2019-02-26T18:27:04.413Z,10.88
2019-02-26T18:29:36.345Z,10.88
2019-02-26T18:32:10.819Z,10.87
2019-02-26T18:34:41.347Z,10.87
2019-02-26T18:37:13.040Z,10.74
2019-02-26T18:39:45.515Z,10.71
2019-02-26T18:42:17.136Z,10.71
2019-02-26T18:44:49.437Z,10.86
2019-02-26T18:47:23.968Z,10.63
2019-02-26T18:50:02.707Z,10.55
2019-02-26T18:52:41.209Z,10.53
2019-02-26T18:55:12.858Z,10.38
2019-02-26T18:57:44.603Z,10.32
2019-02-26T19:00:25.987Z,10.29
2019-02-26T19:03:01.605Z,10.23
2019-02-26T19:05:34.438Z,10.18
2019-02-26T19:08:06.627Z,10.18
2019-02-26T19:10:40.238Z,10.10
2019-02-26T19:13:13.835Z,10.06
2019-02-26T19:15:47.690Z,9.98
2019-02-26T19:18:23.351Z,9.91
2019-02-26T19:20:54.869Z,9.89
2019-02-26T19:23:26.280Z,10.01
2019-02-26T19:25:58.730Z,9.85
2019-02-26T19:28:30.464Z,9.76
2019-02-26T19:31:03.379Z,9.82
2019-02-26T19:33:34.856Z,9.89
2019-02-26T19:36:07.151Z,9.93
2019-02-26T19:38:41.498Z,9.75
2019-02-26T19:41:15.725Z,9.73
2019-02-26T19:43:48.309Z,9.76
2019-02-26T19:49:13.206Z,9.70
2019-02-26T19:51:45.800Z,9.71
2019-02-26T19:54:17.787Z,9.55
2019-02-26T19:56:49.879Z,9.41
2019-02-26T19:59:23.567Z,9.28
2019-02-26T20:01:59.665Z,9.15
2019-02-26T20:04:38.660Z,9.19
2019-02-26T20:07:53.235Z,9.18
2019-02-26T20:10:32.371Z,9.17
2019-02-26T20:28:21.616Z,9.08
2019-02-26T20:30:53.137Z,9.15
2019-02-26T20:33:24.579Z,9.09
2019-02-26T20:35:56.085Z,9.15
2019-02-26T20:38:35.019Z,9.08
2019-02-26T20:41:03.445Z,9.06
2019-02-26T20:43:36.813Z,8.98
2019-02-26T20:46:08.860Z,8.94
2019-02-26T20:48:40.055Z,8.86
2019-02-26T20:51:11.277Z,8.79
2019-02-26T20:53:42.562Z,8.86
2019-02-26T20:56:13.847Z,8.77
2019-02-26T20:58:45.464Z,8.77
2019-02-26T21:01:16.824Z,8.74
2019-02-26T21:03:48.434Z,8.55
2019-02-26T21:06:19.714Z,8.61
2019-02-26T21:08:51.014Z,8.63
2019-02-26T21:11:23.336Z,8.64
2019-02-26T21:13:55.102Z,8.64
2019-02-26T21:16:26.282Z,8.54
2019-02-26T21:18:57.499Z,8.48
2019-02-26T21:21:30.257Z,8.41
2019-02-26T21:24:01.478Z,8.44
2019-02-26T21:26:33.128Z,8.47
2019-02-26T21:29:06.457Z,8.38
2019-02-26T21:31:38.901Z,8.46
2019-02-26T21:34:10.338Z,8.40
2019-02-26T21:36:41.594Z,8.42
2019-02-26T21:39:12.830Z,8.17
2019-02-26T21:41:44.109Z,8.18
2019-02-26T21:44:15.733Z,8.03
2019-02-26T21:46:47.006Z,7.93
2019-02-26T21:49:18.364Z,7.86
2019-02-26T21:51:50.691Z,7.97
2019-02-26T21:54:24.739Z,7.98
2019-02-26T21:56:55.723Z,7.88
2019-02-26T21:59:26.844Z,8.03
2019-02-26T22:01:59.048Z,8.06
2019-02-26T22:04:31.961Z,7.88
2019-02-26T22:07:03.267Z,7.65
2019-02-26T22:09:34.890Z,7.77
2019-02-26T22:12:06.188Z,7.70
2019-02-26T22:14:37.545Z,7.69
2019-02-26T22:17:08.731Z,7.57
2019-02-26T22:19:40.076Z,7.69
2019-02-26T22:22:13.781Z,7.40
2019-02-26T22:24:46.185Z,7.61
2019-02-26T22:27:17.654Z,7.59
2019-02-26T22:29:48.928Z,7.63
2019-02-26T22:32:20.153Z,7.59
2019-02-26T22:34:53.589Z,7.55
2019-02-26T22:37:24.384Z,7.50
2019-02-26T22:39:55.833Z,7.58
2019-02-26T22:42:28.723Z,7.53
2019-02-26T22:45:01.409Z,7.72
2019-02-26T22:47:33.220Z,7.58
2019-02-26T22:50:04.471Z,7.56
2019-02-26T22:52:36.991Z,7.44
2019-02-26T22:55:09.265Z,7.42
2019-02-26T22:57:40.970Z,7.32
2019-02-26T23:00:50.728Z,7.35
2019-02-26T23:03:46.890Z,7.48
2019-02-26T23:06:18.346Z,7.37
2019-02-26T23:08:50.024Z,7.42
2019-02-26T23:11:21.789Z,7.51
2019-02-26T23:13:54.391Z,7.38
2019-02-26T23:16:26.950Z,7.31
2019-02-26T23:19:03.517Z,7.27
2019-02-26T23:21:36.478Z,7.26
2019-02-26T23:24:10.606Z,7.17
2019-02-26T23:26:43.323Z,7.12
2019-02-26T23:29:16.507Z,7.00
2019-02-26T23:31:47.855Z,6.96
2019-02-26T23:34:22.151Z,6.91
2019-02-26T23:36:52.703Z,6.93
2019-02-26T23:39:24.910Z,7.14
2019-02-26T23:41:58.058Z,7.07
2019-02-26T23:44:29.387Z,6.87
2019-02-26T23:48:34.193Z,6.91
2019-02-26T23:51:05.641Z,6.89
2019-02-26T23:53:36.890Z,6.82
2019-02-26T23:56:09.024Z,6.82
2019-02-26T23:58:48.700Z,6.91
